Aquone, NC

6:16 AM EDT on October 01, 2014 (GMT -0400)
Noon Day Sun Ridge | Change Station
CLOSE
Current Station
Personal Weather Station
Location: Topton, NC
Elevation: 3003 ft
Nearby Weather Stations
Active Advisory: Special Statement

Elev 3003 ft 35.26 °N, 83.69 °W | Updated 3 seconds ago

Mostly Cloudy
Mostly Cloudy
55.3 °F
Feels Like 55.3 °F
N
0.0
Wind Variable Wind from WNW
Gusts 0.0 mph

Today
High -- | Low -- °F
--% Chance of Precip.
Yesterday
High -- | Low -- °F
Precip. -- in
7:29 AM 7:18 PM
Waxing Crescent, 46% visible
Pressure 30.03 in
Visibility 0.2 miles
Clouds Overcast 200 ft
Dew Point 55 °F
Humidity 99%
Rainfall 0.00 in
Snow Depth Not available.
UV 0 out of 12
Pollen 4.90 out of 12
Air Quality Not available.
Flu Activity Not available.
METAR KRHP 010955Z AUTO 00000KT 1/4SM FG OVC002 11/11 A3003 RMK AO2 T01090109

More Conditions Fewer Conditions

Pressure 30.03 in
Visibility 0.2 miles
Clouds Overcast 200 ft
Dew Point 55 °F
Humidity 99%
Rainfall 0.00 in
Snow Depth Not available.
UV 0 out of 12
Pollen 4.90 out of 12
Air Quality Not available.
Flu Activity Not available.
METAR KRHP 010955Z AUTO 00000KT 1/4SM FG OVC002 11/11 A3003 RMK AO2 T01090109

More Conditions Fewer Conditions

10-Day Weather Forecast

Almanac

Astronomy

Oct. 01, 2014 Rise Set
Actual Time 7:29 AM EDT 7:18 PM EDT
Civil Twilight 7:04 AM EDT 7:43 PM EDT
Nautical Twilight 6:34 AM EDT 8:13 PM EDT
Astronomical Twilight 6:05 AM EDT 8:42 PM EDT
Moon 2:20 PM EDT No Moon Set
Length of Visible Light 12h 39m
Length of Day
11h 49m
Tomorrow will be 2m 11s shorter.
Waxing Crescent, 46% of the Moon is Illuminated
Today
Waxing Crescent
Oct 1
First Quarter
Oct 8
Full
Oct 15
Last Quarter
Oct 23
New

Today's Extremes

State Highs State Lows

Community

WunderPhotos

Upload Photos

1,757,905 photos uploaded!

WunderBlogs® & News

Nearby

Snow Depth

Station Depth Elevation
No new snow has been reported.

Earthquake Activity

City Distance Mag. Time & Date
No recent earthquake activity has been reported nearby.
Minimum magnitude displayed is 2.5.

Coastal Water Temperatures

Place Temperature
No Stations Reporting

Nearby Weather Stations